Time;durP1;ratioP1;P1;durP2;ratioP2;P2;SDS_P1;SDS_P2;PMS_P1;PMS_P2;Temp;Humidity;BMP_temperature;BMP_pressure;BME280_temperature;BME280_humidity;BME280_pressure;Samples;Min_cycle;Max_cycle;Signal;HPM_P1;HPM_P2
2020/12/03 00:00:06;;;;;;;40.07;26.20;;;-0.50;66.40;;;;;;5088057;28;20733;-88
2020/12/03 00:02:33;;;;;;;40.73;26.60;;;-0.60;65.70;;;;;;5095322;28;20451;-89
2020/12/03 00:05:00;;;;;;;42.50;26.47;;;-0.60;65.80;;;;;;5091408;28;20480;-88
2020/12/03 00:07:27;;;;;;;44.77;27.90;;;-0.60;66.00;;;;;;5089104;28;20441;-88
2020/12/03 00:09:54;;;;;;;43.93;26.70;;;-0.60;65.70;;;;;;5093593;28;20594;-87
2020/12/03 00:12:22;;;;;;;38.23;24.57;;;-0.70;65.20;;;;;;5088023;28;20456;-88
2020/12/03 00:14:49;;;;;;;40.93;25.33;;;-0.70;65.00;;;;;;5092454;28;20464;-87
2020/12/03 00:17:21;;;;;;;44.00;25.77;;;-0.70;65.20;;;;;;5092314;28;20442;-86
2020/12/03 00:19:47;;;;;;;43.07;28.13;;;-0.70;65.30;;;;;;5090570;28;20452;-87
2020/12/03 00:22:14;;;;;;;42.37;25.27;;;-0.80;66.10;;;;;;5083812;28;20471;-88
2020/12/03 00:24:41;;;;;;;38.60;24.50;;;-1.00;66.30;;;;;;5089667;28;20480;-88
2020/12/03 00:27:08;;;;;;;46.67;27.93;;;-1.00;66.50;;;;;;5089791;28;20475;-89
2020/12/03 00:29:37;;;;;;;41.87;27.20;;;-0.90;66.80;;;;;;5088245;28;20506;-88
2020/12/03 00:32:04;;;;;;;43.50;27.80;;;-1.00;66.90;;;;;;5085352;28;20455;-87
2020/12/03 00:34:34;;;;;;;45.33;26.70;;;-1.10;66.30;;;;;;5074005;28;21399;-86
2020/12/03 00:37:01;;;;;;;54.57;30.30;;;-1.10;66.30;;;;;;5083059;28;20461;-87
2020/12/03 00:39:27;;;;;;;39.30;26.27;;;-0.90;66.80;;;;;;5076305;28;20459;-88
2020/12/03 00:41:55;;;;;;;42.07;27.03;;;-1.00;66.60;;;;;;5068348;28;20457;-87
2020/12/03 00:44:22;;;;;;;42.23;26.30;;;-1.00;66.80;;;;;;5074062;28;20473;-87
2020/12/03 00:46:52;;;;;;;42.07;27.53;;;-0.90;67.10;;;;;;5070837;28;21003;-87
2020/12/03 00:49:20;;;;;;;46.63;27.00;;;-1.00;67.10;;;;;;5075649;28;20440;-87
2020/12/03 00:51:52;;;;;;;41.73;25.20;;;-0.90;66.80;;;;;;5074208;28;20460;-87
2020/12/03 00:54:18;;;;;;;38.90;24.30;;;-0.90;66.90;;;;;;5073972;28;20441;-87
2020/12/03 00:56:47;;;;;;;42.53;26.47;;;-0.80;66.90;;;;;;5079594;28;20450;-87
2020/12/03 00:59:13;;;;;;;46.17;27.50;;;-0.90;66.50;;;;;;5079024;28;20460;-87
2020/12/03 01:01:40;;;;;;;39.57;26.10;;;-0.90;66.60;;;;;;5078751;28;20927;-87
2020/12/03 01:04:07;;;;;;;39.97;26.60;;;-0.90;66.70;;;;;;5089796;28;20539;-89
2020/12/03 01:06:34;;;;;;;44.17;26.77;;;-1.00;66.70;;;;;;5085090;28;20436;-87
2020/12/03 01:09:00;;;;;;;42.87;24.20;;;-0.90;66.50;;;;;;5096460;28;20464;-87
2020/12/03 01:11:28;;;;;;;41.00;25.67;;;-1.00;66.80;;;;;;5078188;28;20511;-86
2020/12/03 01:13:55;;;;;;;40.73;26.00;;;-0.80;66.90;;;;;;5085749;28;20465;-85
2020/12/03 01:16:21;;;;;;;45.10;25.20;;;-0.90;66.40;;;;;;5082517;28;21144;-87
2020/12/03 01:18:49;;;;;;;40.23;26.93;;;-0.90;67.00;;;;;;5094271;28;20540;-88
2020/12/03 01:21:20;;;;;;;41.00;25.97;;;-1.10;67.00;;;;;;5094652;28;20444;-88
2020/12/03 01:23:47;;;;;;;38.90;26.63;;;-1.10;67.40;;;;;;5096202;28;20458;-89
2020/12/03 01:26:16;;;;;;;42.63;25.80;;;-1.00;67.70;;;;;;5083894;28;20438;-87
2020/12/03 01:28:43;;;;;;;40.60;27.77;;;-1.00;67.30;;;;;;5079179;28;20460;-87
2020/12/03 01:31:13;;;;;;;41.13;26.87;;;-1.00;67.40;;;;;;5090639;28;20442;-87
2020/12/03 01:33:40;;;;;;;43.80;27.47;;;-1.20;67.10;;;;;;5082018;28;20470;-87
2020/12/03 01:36:08;;;;;;;42.70;27.60;;;-1.10;67.30;;;;;;5075573;28;20448;-87
2020/12/03 01:38:35;;;;;;;44.80;27.20;;;-1.10;67.20;;;;;;5073152;28;20931;-87
2020/12/03 01:41:02;;;;;;;38.83;26.10;;;-1.00;67.00;;;;;;5070388;28;20480;-87
2020/12/03 01:43:28;;;;;;;42.03;25.47;;;-1.00;66.90;;;;;;5071052;28;20475;-88
2020/12/03 01:45:57;;;;;;;39.53;26.50;;;-1.00;66.80;;;;;;5089924;28;20471;-85
2020/12/03 01:48:35;;;;;;;43.60;26.47;;;-0.90;67.00;;;;;;5067275;28;20446;-86
2020/12/03 01:51:07;;;;;;;40.57;26.80;;;-0.80;67.00;;;;;;5054681;28;20466;-86
2020/12/03 01:53:35;;;;;;;48.13;26.60;;;-0.80;67.00;;;;;;5066061;28;20453;-87
2020/12/03 01:56:05;;;;;;;39.90;27.33;;;-0.80;66.70;;;;;;5068891;28;20972;-88
2020/12/03 01:58:38;;;;;;;41.90;26.60;;;-0.90;66.80;;;;;;5061862;28;20445;-88
2020/12/03 02:01:06;;;;;;;45.93;26.63;;;-0.80;67.40;;;;;;5077359;28;20442;-89
2020/12/03 02:03:33;;;;;;;40.80;25.87;;;-0.60;66.60;;;;;;5064930;28;20476;-87
2020/12/03 02:05:59;;;;;;;43.17;27.23;;;-0.50;66.50;;;;;;5074969;28;20531;-87
2020/12/03 02:08:26;;;;;;;43.57;28.00;;;-0.50;66.60;;;;;;5074249;28;20449;-87
2020/12/03 02:10:54;;;;;;;41.77;26.07;;;-0.50;67.00;;;;;;5061987;28;20450;-87
2020/12/03 02:13:22;;;;;;;43.80;27.30;;;-0.50;67.20;;;;;;5056208;28;20452;-87
2020/12/03 02:15:49;;;;;;;40.43;26.33;;;-0.50;67.30;;;;;;5083265;28;20455;-87
2020/12/03 02:18:15;;;;;;;38.90;25.23;;;-0.50;67.30;;;;;;5077758;28;20455;-87
2020/12/03 02:20:45;;;;;;;37.77;23.10;;;-0.50;66.50;;;;;;5084436;28;20441;-86
2020/12/03 02:23:16;;;;;;;35.03;23.27;;;-0.50;64.70;;;;;;5087266;28;20471;-86
2020/12/03 02:25:43;;;;;;;43.30;24.73;;;-0.50;64.30;;;;;;5083079;28;20786;-86
2020/12/03 02:28:10;;;;;;;39.23;23.10;;;-0.50;64.50;;;;;;5079500;28;20480;-86
2020/12/03 02:30:37;;;;;;;39.80;25.00;;;-0.50;64.60;;;;;;5080177;28;20449;-87
2020/12/03 02:33:09;;;;;;;41.73;24.60;;;-0.40;64.80;;;;;;5070550;28;20483;-86
2020/12/03 02:35:43;;;;;;;40.23;24.70;;;-0.40;64.80;;;;;;5071424;28;20449;-86
2020/12/03 02:38:09;;;;;;;35.57;23.97;;;-0.40;65.10;;;;;;5068829;28;20443;-86
2020/12/03 02:40:36;;;;;;;44.33;26.23;;;-0.50;64.80;;;;;;5072418;28;20545;-86
2020/12/03 02:43:03;;;;;;;43.60;26.70;;;-0.50;65.20;;;;;;5078047;28;20531;-86
2020/12/03 02:45:30;;;;;;;38.00;25.07;;;-0.40;65.10;;;;;;5072444;28;20452;-85
2020/12/03 02:47:56;;;;;;;38.00;24.60;;;-0.40;64.80;;;;;;5076414;28;20804;-87
2020/12/03 02:50:23;;;;;;;43.90;26.37;;;-0.50;64.80;;;;;;5075700;28;20473;-86
2020/12/03 02:52:51;;;;;;;40.67;25.80;;;-0.50;64.90;;;;;;5075665;28;20940;-87
2020/12/03 02:55:18;;;;;;;39.90;26.60;;;-0.50;65.10;;;;;;5070370;28;20484;-87
2020/12/03 02:57:46;;;;;;;42.70;25.60;;;-0.50;65.60;;;;;;5079539;28;20957;-87
2020/12/03 03:00:13;;;;;;;42.80;26.80;;;-0.50;65.60;;;;;;5076129;28;20461;-85
2020/12/03 03:02:40;;;;;;;44.07;27.10;;;-0.50;65.80;;;;;;5078311;28;20447;-86
2020/12/03 03:05:06;;;;;;;43.63;25.80;;;-0.50;65.90;;;;;;5072353;28;20830;-88
2020/12/03 03:07:33;;;;;;;43.63;26.70;;;-0.60;65.60;;;;;;5071040;28;20485;-85
2020/12/03 03:10:07;;;;;;;42.50;27.20;;;-0.60;65.70;;;;;;5077877;28;20447;-86
2020/12/03 03:12:35;;;;;;;39.90;24.63;;;-0.60;65.90;;;;;;5073460;28;20453;-85
2020/12/03 03:15:02;;;;;;;42.40;26.03;;;-0.50;66.00;;;;;;5088313;28;21657;-87
2020/12/03 03:17:29;;;;;;;41.13;25.00;;;-0.60;65.80;;;;;;5089785;28;20450;-86
2020/12/03 03:19:56;;;;;;;37.37;24.67;;;-0.60;65.80;;;;;;5086923;28;20491;-86
2020/12/03 03:22:23;;;;;;;44.07;26.13;;;-0.50;65.90;;;;;;5076902;28;20530;-86
2020/12/03 03:24:49;;;;;;;37.23;24.10;;;-0.50;66.20;;;;;;5073105;28;20500;-87
2020/12/03 03:27:18;;;;;;;41.20;25.60;;;-0.50;66.10;;;;;;5073045;28;20569;-86
2020/12/03 03:29:47;;;;;;;41.47;26.40;;;-0.50;66.20;;;;;;5074581;28;20454;-86
2020/12/03 03:32:13;;;;;;;46.27;26.13;;;-0.40;65.80;;;;;;5077091;28;20481;-87
2020/12/03 03:34:40;;;;;;;43.27;27.07;;;-0.50;66.00;;;;;;5068417;28;20881;-86
2020/12/03 03:37:06;;;;;;;41.10;26.13;;;-0.50;65.60;;;;;;5069175;28;20953;-86
2020/12/03 03:39:33;;;;;;;41.93;26.17;;;-0.60;65.60;;;;;;5070144;28;20447;-87
2020/12/03 03:42:00;;;;;;;45.40;26.20;;;-0.60;65.70;;;;;;5069601;28;20886;-86
2020/12/03 03:44:28;;;;;;;42.83;27.90;;;-0.50;66.20;;;;;;5071939;28;20462;-87
2020/12/03 03:46:54;;;;;;;40.17;24.90;;;-0.50;66.00;;;;;;5074827;28;20445;-87
2020/12/03 03:49:21;;;;;;;42.33;24.53;;;-0.40;66.10;;;;;;5073005;28;20437;-87
2020/12/03 03:51:47;;;;;;;42.93;24.90;;;-0.50;66.10;;;;;;5074560;28;20448;-88
2020/12/03 03:54:18;;;;;;;45.53;25.10;;;-0.50;65.70;;;;;;5079361;28;20472;-87
2020/12/03 03:56:46;;;;;;;40.43;25.60;;;-0.50;65.70;;;;;;5080941;28;20449;-85
2020/12/03 03:59:13;;;;;;;40.77;25.60;;;-0.50;65.70;;;;;;5077026;28;20460;-86
2020/12/03 04:01:42;;;;;;;40.23;25.70;;;-0.50;65.90;;;;;;5070817;28;20511;-87
2020/12/03 04:04:13;;;;;;;44.20;25.60;;;-0.50;66.00;;;;;;5069887;28;20484;-87
2020/12/03 04:06:42;;;;;;;43.23;27.77;;;-0.50;66.20;;;;;;5063324;28;20532;-87
2020/12/03 04:09:08;;;;;;;44.40;25.93;;;-0.40;66.10;;;;;;5076187;28;20489;-87
2020/12/03 04:11:35;;;;;;;40.97;24.70;;;-0.50;65.80;;;;;;5092609;28;20442;-88
2020/12/03 04:14:02;;;;;;;39.60;25.30;;;-0.50;66.10;;;;;;5084561;28;20485;-87
2020/12/03 04:16:28;;;;;;;41.67;25.07;;;-0.50;66.10;;;;;;5087052;28;20451;-87
2020/12/03 04:18:56;;;;;;;41.97;26.20;;;-0.50;66.30;;;;;;5089167;28;20466;-87
2020/12/03 04:21:25;;;;;;;43.47;26.30;;;-0.50;66.20;;;;;;5072440;28;20445;-87
2020/12/03 04:23:52;;;;;;;40.80;26.43;;;-0.50;66.80;;;;;;5073728;28;20473;-88
2020/12/03 04:26:18;;;;;;;43.40;27.60;;;-0.40;67.10;;;;;;5074299;28;20469;-87
2020/12/03 04:28:45;;;;;;;49.30;27.07;;;-0.40;67.20;;;;;;5087478;28;20455;-86
2020/12/03 04:31:14;;;;;;;44.53;28.13;;;-0.30;67.20;;;;;;5081986;28;20469;-87
2020/12/03 04:33:40;;;;;;;45.03;26.73;;;-0.40;67.50;;;;;;5069349;28;20583;-87
2020/12/03 04:36:08;;;;;;;47.70;27.90;;;-0.40;67.60;;;;;;5064753;28;20449;-86
2020/12/03 04:38:34;;;;;;;49.23;27.30;;;-0.40;67.60;;;;;;5076091;28;20485;-87
2020/12/03 04:41:02;;;;;;;39.20;26.47;;;-0.50;67.70;;;;;;5074637;28;20462;-86
2020/12/03 04:43:34;;;;;;;49.10;26.83;;;-0.40;68.00;;;;;;5077530;28;20477;-87
2020/12/03 04:46:05;;;;;;;41.43;24.80;;;-0.50;67.80;;;;;;5070828;28;20453;-87
2020/12/03 04:49:03;;;;;;;45.90;28.20;;;-0.50;67.90;;;;;;5072681;28;20442;-87
2020/12/03 04:51:59;;;;;;;40.47;24.57;;;-0.40;68.30;;;;;;5079708;28;20487;-87
2020/12/03 04:54:32;;;;;;;43.20;26.97;;;-0.40;68.30;;;;;;5069478;28;20469;-87
2020/12/03 04:57:05;;;;;;;46.33;26.67;;;-0.50;67.80;;;;;;5078487;28;20547;-87
2020/12/03 04:59:42;;;;;;;41.77;25.00;;;-0.40;68.20;;;;;;5073497;28;20460;-87
2020/12/03 05:02:41;;;;;;;41.00;25.87;;;-0.50;68.10;;;;;;5080931;28;20464;-87
2020/12/03 05:05:22;;;;;;;42.03;25.10;;;-0.50;67.80;;;;;;5075435;28;20549;-87
2020/12/03 05:07:59;;;;;;;36.67;24.30;;;-0.50;67.80;;;;;;5086159;28;20442;-87
2020/12/03 05:10:34;;;;;;;40.43;25.13;;;-0.50;67.70;;;;;;5092667;28;20468;-88
2020/12/03 05:13:01;;;;;;;43.73;26.03;;;-0.60;67.90;;;;;;5080823;28;20456;-90
2020/12/03 05:15:31;;;;;;;38.40;24.27;;;-0.60;67.60;;;;;;5082248;28;21804;-87
2020/12/03 05:18:24;;;;;;;40.47;24.63;;;-0.50;68.30;;;;;;5078092;28;20449;-88
2020/12/03 05:20:52;;;;;;;39.50;24.30;;;-0.50;67.90;;;;;;5057141;28;20466;-87
2020/12/03 05:23:25;;;;;;;37.60;24.63;;;-0.40;67.90;;;;;;5066949;28;20522;-88
2020/12/03 05:25:53;;;;;;;40.07;23.30;;;-0.40;67.70;;;;;;5080692;28;20449;-88
2020/12/03 05:28:37;;;;;;;42.33;26.13;;;-0.40;67.50;;;;;;5079998;28;20540;-87
2020/12/03 05:31:23;;;;;;;37.67;23.90;;;-0.40;67.50;;;;;;5086606;28;21040;-88
2020/12/03 05:33:53;;;;;;;42.10;24.43;;;-0.40;67.30;;;;;;5087069;28;20552;-89
2020/12/03 05:36:25;;;;;;;43.63;26.17;;;-0.40;67.40;;;;;;5072876;28;20451;-89
2020/12/03 05:38:53;;;;;;;42.57;24.30;;;-0.30;67.50;;;;;;5084509;28;20457;-86
2020/12/03 05:41:23;;;;;;;42.80;24.60;;;-0.40;67.20;;;;;;5080564;28;20445;-85
2020/12/03 05:43:50;;;;;;;42.27;26.53;;;-0.30;67.40;;;;;;5086229;28;20457;-85
2020/12/03 05:46:26;;;;;;;48.37;27.30;;;-0.40;66.90;;;;;;5093021;28;20437;-85
2020/12/03 05:48:58;;;;;;;46.00;25.13;;;-0.40;67.00;;;;;;5066452;28;20552;-85
2020/12/03 05:51:28;;;;;;;43.00;23.53;;;-0.40;67.20;;;;;;5081126;28;20460;-85
2020/12/03 05:54:00;;;;;;;38.33;24.03;;;-0.40;66.90;;;;;;5085433;28;20508;-85
2020/12/03 05:56:29;;;;;;;39.60;22.87;;;-0.40;66.80;;;;;;5084293;28;20500;-85
2020/12/03 05:58:55;;;;;;;41.13;24.17;;;-0.40;66.80;;;;;;5086242;28;20468;-84
2020/12/03 06:01:24;;;;;;;38.50;23.30;;;-0.30;66.80;;;;;;5090490;28;20455;-84
2020/12/03 06:04:06;;;;;;;35.27;21.83;;;-0.30;66.80;;;;;;5086168;28;20464;-86
2020/12/03 06:07:13;;;;;;;39.50;23.70;;;-0.30;66.60;;;;;;5074633;28;20441;-86
2020/12/03 06:09:59;;;;;;;39.97;23.03;;;-0.30;66.40;;;;;;5079552;28;20541;-84
2020/12/03 06:12:40;;;;;;;40.43;24.63;;;-0.30;66.40;;;;;;5084716;28;20456;-85
2020/12/03 06:15:25;;;;;;;39.00;23.67;;;-0.30;66.20;;;;;;5085323;28;20500;-85
2020/12/03 06:18:16;;;;;;;35.17;21.97;;;-0.30;66.30;;;;;;5082136;28;20920;-86
2020/12/03 06:20:55;;;;;;;37.37;20.83;;;-0.30;66.40;;;;;;5073988;28;20471;-85
2020/12/03 06:23:36;;;;;;;42.17;21.90;;;-0.30;66.40;;;;;;5082970;28;20448;-85
2020/12/03 06:26:14;;;;;;;35.77;21.50;;;-0.30;66.40;;;;;;5085759;28;20860;-85
2020/12/03 06:29:22;;;;;;;42.53;23.77;;;-0.30;66.30;;;;;;5081301;28;20463;-85
2020/12/03 06:32:21;;;;;;;37.70;23.10;;;-0.30;66.20;;;;;;5083070;28;20477;-85
2020/12/03 06:34:59;;;;;;;41.23;21.60;;;-0.20;66.80;;;;;;5076011;28;20454;-86
2020/12/03 06:37:34;;;;;;;41.63;24.20;;;-0.20;66.90;;;;;;5089404;28;20444;-85
2020/12/03 06:40:06;;;;;;;37.00;21.33;;;-0.20;66.70;;;;;;5089361;28;20461;-86
2020/12/03 06:42:41;;;;;;;40.10;21.80;;;-0.10;67.00;;;;;;5092292;28;20469;-84
2020/12/03 06:45:31;;;;;;;34.37;22.47;;;-0.20;66.70;;;;;;5085945;28;20483;-85
2020/12/03 06:48:46;;;;;;;36.63;21.50;;;-0.10;67.10;;;;;;5082766;28;20784;-85
2020/12/03 06:51:43;;;;;;;31.73;20.53;;;-0.10;66.80;;;;;;5073557;28;20449;-84
2020/12/03 06:54:59;;;;;;;36.73;22.80;;;-0.10;66.30;;;;;;5083866;28;20503;-86
2020/12/03 06:58:00;;;;;;;33.42;20.70;;;-0.10;66.30;;;;;;5026617;28;20829;-76
2020/12/03 07:00:46;;;;;;;34.20;19.60;;;-0.10;66.30;;;;;;5024013;28;20208;-77
2020/12/03 07:03:52;;;;;;;31.20;20.53;;;-0.20;66.10;;;;;;5065002;28;20460;-75
2020/12/03 07:06:44;;;;;;;33.30;21.07;;;-0.20;66.00;;;;;;5061211;28;20464;-84
2020/12/03 07:09:36;;;;;;;33.03;19.87;;;-0.30;65.90;;;;;;5075686;28;20418;-84
2020/12/03 07:12:28;;;;;;;40.27;21.90;;;-0.30;66.20;;;;;;5081996;28;20947;-84
2020/12/03 07:18:28;;;;;;;41.53;21.43;;;-0.30;66.50;;;;;;5110300;22;20851;-82
2020/12/03 07:21:22;;;;;;;35.67;20.47;;;-0.30;66.20;;;;;;5077059;28;20467;-82
2020/12/03 07:23:54;;;;;;;32.97;19.70;;;-0.30;66.40;;;;;;5076119;28;20457;-82
2020/12/03 07:26:50;;;;;;;31.70;19.40;;;-0.40;66.40;;;;;;5075567;28;20464;-82
2020/12/03 07:29:21;;;;;;;36.60;19.53;;;-0.40;66.10;;;;;;5069335;28;20458;-83
2020/12/03 07:31:51;;;;;;;39.00;21.23;;;-0.40;66.50;;;;;;5080942;28;20556;-83
2020/12/03 07:34:26;;;;;;;38.53;20.80;;;-0.40;66.60;;;;;;5082046;28;20452;-83
2020/12/03 07:36:59;;;;;;;33.33;18.67;;;-0.40;67.10;;;;;;5073200;28;20471;-85
2020/12/03 07:39:32;;;;;;;43.97;22.80;;;-0.20;68.90;;;;;;5077467;28;20452;-83
2020/12/03 07:42:02;;;;;;;34.47;20.30;;;-0.20;66.50;;;;;;5074776;28;20608;-82
2020/12/03 07:44:50;;;;;;;37.33;21.50;;;-0.30;66.40;;;;;;5078255;28;20465;-83
2020/12/03 07:47:25;;;;;;;33.03;19.83;;;-0.30;67.40;;;;;;5074264;28;20504;-84
2020/12/03 07:49:56;;;;;;;35.33;21.53;;;-0.30;66.80;;;;;;5072391;28;20445;-83
2020/12/03 07:52:30;;;;;;;35.33;19.83;;;-0.40;66.40;;;;;;5071696;28;20536;-83
2020/12/03 07:55:35;;;;;;;39.40;20.83;;;-0.50;66.50;;;;;;5074779;28;20488;-82
2020/12/03 07:58:05;;;;;;;33.27;20.13;;;-0.40;67.00;;;;;;5067352;28;21033;-83
2020/12/03 08:00:46;;;;;;;36.67;20.83;;;-0.40;69.10;;;;;;5076805;28;20454;-85
2020/12/03 08:03:42;;;;;;;37.20;21.20;;;-0.30;66.60;;;;;;5067487;28;20453;-82
2020/12/03 08:06:18;;;;;;;38.83;22.03;;;-0.30;66.70;;;;;;5068785;28;20553;-84
2020/12/03 08:08:48;;;;;;;37.40;21.17;;;-0.30;66.90;;;;;;5073447;28;20469;-84
2020/12/03 08:11:44;;;;;;;40.00;22.23;;;-0.20;67.00;;;;;;5070573;28;20961;-81
2020/12/03 08:14:42;;;;;;;36.40;21.00;;;-0.30;66.90;;;;;;5066319;28;21091;-80
2020/12/03 08:17:36;;;;;;;41.43;22.53;;;-0.30;66.80;;;;;;5075242;28;20513;-81
2020/12/03 08:20:16;;;;;;;39.50;22.07;;;-0.30;67.10;;;;;;5074404;28;20448;-81
2020/12/03 08:22:46;;;;;;;40.80;22.47;;;-0.20;67.30;;;;;;5076072;28;20863;-84
2020/12/03 08:25:17;;;;;;;45.03;23.87;;;-0.30;66.80;;;;;;5075122;28;20518;-82
2020/12/03 08:27:50;;;;;;;38.13;22.10;;;-0.30;67.20;;;;;;5073401;28;20472;-81
2020/12/03 08:30:37;;;;;;;36.83;21.03;;;-0.20;67.10;;;;;;5077864;28;20595;-80
2020/12/03 08:33:12;;;;;;;44.08;29.70;;;-0.20;67.10;;;;;;5067625;28;20454;-78
2020/12/03 08:35:49;;;;;;;42.70;30.45;;;-0.20;67.10;;;;;;5070851;28;20465;-81
2020/12/03 08:38:18;;;;;;;44.47;25.30;;;-0.20;67.20;;;;;;5076846;28;20190;-77
2020/12/03 08:40:47;;;;;;;41.83;24.10;;;-0.10;67.20;;;;;;5077079;28;20453;-80
2020/12/03 08:43:17;;;;;;;46.60;25.00;;;-0.20;67.00;;;;;;5080098;28;20478;-79
2020/12/03 08:45:51;;;;;;;40.10;22.93;;;-0.20;67.30;;;;;;5074132;28;20568;-81
2020/12/03 08:48:24;;;;;;;39.13;22.97;;;-0.20;67.30;;;;;;5077894;28;20510;-80
2020/12/03 08:50:59;;;;;;;43.55;28.15;;;-0.20;67.30;;;;;;5068421;28;21086;-76
2020/12/03 08:53:28;;;;;;;48.35;32.15;;;-0.20;67.60;;;;;;5075585;28;20437;-80
2020/12/03 08:56:11;;;;;;;41.63;25.90;;;-0.20;67.80;;;;;;5075925;28;20237;-82
2020/12/03 08:58:42;;;;;;;43.17;24.00;;;-0.20;68.00;;;;;;5074428;28;20944;-80
2020/12/03 09:01:09;;;;;;;39.90;23.63;;;-0.20;67.50;;;;;;5080993;28;20442;-81
2020/12/03 09:03:39;;;;;;;34.90;22.30;;;-0.20;67.60;;;;;;5081476;28;20517;-78
2020/12/03 09:06:08;;;;;;;41.67;22.80;;;-0.20;67.70;;;;;;5078629;28;20524;-79
2020/12/03 09:08:34;;;;;;;48.33;31.90;;;-0.20;67.90;;;;;;5072196;28;20443;-77
2020/12/03 09:11:01;;;;;;;39.63;24.50;;;-0.10;68.00;;;;;;5075618;28;20203;-84
2020/12/03 09:13:29;;;;;;;38.73;22.23;;;-0.10;68.00;;;;;;5067399;28;20479;-86
2020/12/03 09:15:58;;;;;;;36.10;22.27;;;0.00;68.10;;;;;;5083723;28;20450;-86
2020/12/03 09:18:26;;;;;;;39.57;23.40;;;0.00;67.80;;;;;;5070344;28;20509;-83
2020/12/03 09:20:55;;;;;;;43.60;24.53;;;0.00;67.90;;;;;;5077714;28;20459;-78
2020/12/03 09:23:25;;;;;;;44.22;24.15;;;0.10;68.30;;;;;;5069908;28;20465;-84
2020/12/03 09:25:52;;;;;;;43.97;27.15;;;0.20;68.00;;;;;;5065512;28;20442;-82
2020/12/03 09:28:19;;;;;;;43.40;29.45;;;0.10;67.80;;;;;;5075965;28;20512;-77
2020/12/03 09:30:47;;;;;;;43.42;27.85;;;0.10;67.80;;;;;;5073785;28;20457;-77
2020/12/03 09:33:18;;;;;;;43.08;29.15;;;0.20;68.10;;;;;;5069505;28;20450;-79
2020/12/03 09:35:47;;;;;;;42.88;30.23;;;0.10;67.80;;;;;;5070877;28;20445;-78
2020/12/03 09:38:17;;;;;;;39.67;24.90;;;0.10;68.00;;;;;;5074459;28;20651;-79
2020/12/03 09:40:45;;;;;;;38.93;23.10;;;0.10;68.10;;;;;;5075481;28;20589;-79
2020/12/03 09:43:15;;;;;;;40.63;23.03;;;0.00;67.80;;;;;;5073318;28;20453;-78
2020/12/03 09:45:44;;;;;;;42.13;27.92;;;0.10;67.80;;;;;;5081553;28;20457;-84
2020/12/03 09:48:13;;;;;;;40.00;24.13;;;0.20;68.10;;;;;;5087512;28;20203;-86
2020/12/03 09:50:44;;;;;;;42.83;22.90;;;0.20;67.70;;;;;;5089402;28;20526;-83
2020/12/03 09:53:17;;;;;;;36.87;22.40;;;0.20;67.70;;;;;;5089343;28;20548;-83
2020/12/03 09:55:44;;;;;;;36.13;20.70;;;0.10;67.90;;;;;;5084112;28;20458;-81
2020/12/03 09:58:11;;;;;;;40.60;22.87;;;0.10;67.90;;;;;;5081340;28;20464;-84
2020/12/03 10:00:40;;;;;;;36.90;21.73;;;0.10;68.00;;;;;;5079016;28;20456;-83
2020/12/03 10:03:27;;;;;;;40.70;25.67;;;0.10;68.10;;;;;;5077072;28;21041;-84
2020/12/03 10:06:02;;;;;;;43.43;23.90;;;0.10;68.00;;;;;;5081438;28;20762;-86
2020/12/03 10:08:55;;;;;;;41.93;22.83;;;0.20;68.00;;;;;;5073641;28;20456;-81
2020/12/03 10:11:43;;;;;;;44.10;30.08;;;0.20;68.20;;;;;;5073733;28;20511;-77
2020/12/03 10:14:37;;;;;;;41.53;23.67;;;0.20;68.10;;;;;;5068984;28;20215;-78
2020/12/03 10:17:06;;;;;;;45.20;24.33;;;0.40;68.30;;;;;;5071316;28;20881;-78
2020/12/03 10:19:38;;;;;;;47.10;25.80;;;0.40;68.10;;;;;;5075487;28;20482;-78
2020/12/03 10:22:08;;;;;;;44.33;27.00;;;0.40;68.00;;;;;;5081316;28;20469;-88
2020/12/03 10:24:44;;;;;;;42.13;25.27;;;0.40;68.20;;;;;;5081841;28;20476;-87
2020/12/03 10:27:19;;;;;;;39.23;23.43;;;0.40;68.50;;;;;;5061007;28;20485;-77
2020/12/03 10:29:55;;;;;;;38.90;23.00;;;0.30;68.00;;;;;;5069659;28;20463;-76
2020/12/03 10:32:24;;;;;;;40.10;23.73;;;0.40;68.50;;;;;;5072593;28;20459;-76
2020/12/03 10:34:51;;;;;;;38.95;23.02;;;0.50;68.50;;;;;;5070721;28;20955;-82
2020/12/03 10:37:29;;;;;;;38.37;23.00;;;0.40;68.30;;;;;;5083216;28;20219;-81
2020/12/03 10:40:01;;;;;;;44.95;25.05;;;0.30;68.30;;;;;;5083724;28;20455;-77
2020/12/03 10:42:34;;;;;;;51.13;32.85;;;0.50;68.40;;;;;;5077869;28;20434;-86
2020/12/03 10:45:05;;;;;;;45.23;26.03;;;0.30;68.30;;;;;;5082593;28;20242;-85
2020/12/03 10:47:43;;;;;;;41.50;24.53;;;0.30;68.40;;;;;;5083436;28;20453;-85
2020/12/03 10:50:15;;;;;;;48.17;28.33;;;0.40;68.50;;;;;;5071776;28;20461;-77
2020/12/03 10:52:43;;;;;;;44.00;29.25;;;0.40;68.50;;;;;;5080583;28;20457;-79
2020/12/03 10:55:11;;;;;;;45.13;25.43;;;0.30;68.40;;;;;;5071135;28;20218;-80
2020/12/03 10:57:44;;;;;;;49.40;27.23;;;0.40;68.50;;;;;;5084089;28;20814;-78
2020/12/03 11:00:11;;;;;;;42.15;25.83;;;0.50;68.20;;;;;;5086478;28;20512;-78
2020/12/03 11:02:41;;;;;;;49.40;26.17;;;0.40;68.30;;;;;;5075346;28;20195;-78
2020/12/03 11:05:11;;;;;;;43.97;24.77;;;0.40;68.10;;;;;;5066661;28;20470;-77
2020/12/03 11:07:39;;;;;;;42.80;22.57;;;0.40;68.20;;;;;;5077700;28;20521;-77
2020/12/03 11:10:07;;;;;;;43.63;22.63;;;0.40;68.20;;;;;;5078735;28;21025;-79
2020/12/03 11:12:37;;;;;;;43.10;23.57;;;0.40;68.30;;;;;;5091300;28;21213;-80
2020/12/03 11:15:05;;;;;;;47.58;30.30;;;0.30;68.40;;;;;;5079777;28;20462;-75
2020/12/03 11:18:03;;;;;;;41.50;23.97;;;0.40;68.30;;;;;;5069266;28;20207;-77
2020/12/03 11:20:36;;;;;;;48.45;28.13;;;0.40;68.30;;;;;;5078361;28;20997;-79
2020/12/03 11:23:06;;;;;;;52.00;27.03;;;0.40;68.30;;;;;;5079840;28;20196;-79
2020/12/03 11:25:33;;;;;;;44.20;24.70;;;0.50;68.50;;;;;;5076318;28;20467;-79
2020/12/03 11:28:24;;;;;;;42.20;23.23;;;0.40;68.30;;;;;;5082767;28;20463;-80
2020/12/03 11:30:55;;;;;;;44.13;24.10;;;0.60;68.70;;;;;;5079206;28;20482;-79
2020/12/03 11:33:25;;;;;;;45.43;24.27;;;0.60;68.40;;;;;;5080001;28;20503;-78
2020/12/03 11:36:01;;;;;;;42.13;23.30;;;0.60;68.30;;;;;;5076642;28;20465;-79
2020/12/03 11:38:31;;;;;;;42.47;23.57;;;0.70;68.40;;;;;;5073121;28;20441;-79
2020/12/03 11:40:59;;;;;;;41.80;23.87;;;0.60;68.00;;;;;;5076830;28;20452;-78
2020/12/03 11:43:49;;;;;;;39.20;23.60;;;0.60;68.40;;;;;;5079677;28;20439;-78
2020/12/03 11:49:03;;;;;;;41.63;22.57;;;0.60;68.30;;;;;;5075382;28;20576;-79
2020/12/03 11:51:32;;;;;;;41.53;24.30;;;0.60;68.30;;;;;;5074251;28;20454;-79
2020/12/03 11:54:00;;;;;;;43.20;24.43;;;0.70;68.60;;;;;;5076634;28;20457;-78
2020/12/03 11:56:28;;;;;;;42.03;23.43;;;0.60;68.40;;;;;;5076726;28;20477;-78
2020/12/03 11:59:14;;;;;;;42.70;23.47;;;0.60;68.50;;;;;;5075580;28;20508;-79
2020/12/03 12:01:50;;;;;;;41.40;23.20;;;0.60;68.60;;;;;;5070779;28;20453;-78
2020/12/03 12:04:18;;;;;;;41.37;24.43;;;0.80;68.80;;;;;;5073565;28;20471;-79
2020/12/03 12:06:53;;;;;;;42.70;24.20;;;0.70;68.40;;;;;;5069057;28;20458;-78
2020/12/03 12:09:24;;;;;;;44.77;22.60;;;0.80;68.60;;;;;;5078650;28;20424;-78
2020/12/03 12:11:51;;;;;;;43.23;24.10;;;0.80;68.40;;;;;;5075562;28;20549;-77
2020/12/03 12:14:20;;;;;;;43.70;23.03;;;0.80;68.30;;;;;;5076301;28;20851;-79
2020/12/03 12:16:47;;;;;;;42.00;23.73;;;0.80;68.50;;;;;;5064478;28;20521;-79
2020/12/03 12:19:13;;;;;;;48.90;24.57;;;0.90;68.50;;;;;;5075030;28;20444;-78
2020/12/03 12:21:40;;;;;;;39.97;22.00;;;1.00;68.40;;;;;;5075425;28;20868;-79
2020/12/03 12:24:07;;;;;;;40.93;24.23;;;0.90;68.30;;;;;;5068780;28;20454;-82
2020/12/03 12:26:33;;;;;;;37.93;22.60;;;0.80;68.40;;;;;;5067673;28;20821;-77
2020/12/03 12:29:00;;;;;;;46.10;25.27;;;0.90;68.70;;;;;;5073180;28;20459;-80
2020/12/03 12:31:27;;;;;;;43.27;23.63;;;0.90;68.30;;;;;;5089068;28;20442;-83
2020/12/03 12:33:55;;;;;;;45.37;25.63;;;1.00;68.50;;;;;;5090663;28;20521;-86
2020/12/03 12:36:22;;;;;;;45.05;28.48;;;1.00;68.40;;;;;;5063448;28;20481;-82
2020/12/03 12:38:49;;;;;;;47.47;25.40;;;1.00;68.50;;;;;;5087972;28;20199;-83
2020/12/03 12:41:15;;;;;;;45.07;25.33;;;1.00;68.40;;;;;;5082369;28;20824;-81
2020/12/03 12:43:42;;;;;;;45.27;24.80;;;1.10;68.50;;;;;;5077096;28;20469;-76
2020/12/03 12:46:09;;;;;;;40.47;24.13;;;1.20;68.70;;;;;;5080246;28;20510;-81
2020/12/03 12:48:36;;;;;;;43.50;24.23;;;1.10;68.40;;;;;;5079275;28;20450;-81
2020/12/03 12:51:02;;;;;;;43.17;24.13;;;1.10;68.00;;;;;;5079424;28;20453;-80
2020/12/03 12:53:30;;;;;;;40.37;23.60;;;1.10;68.20;;;;;;5081815;28;20504;-83
2020/12/03 12:55:57;;;;;;;47.10;25.40;;;1.20;68.30;;;;;;5078781;28;20445;-84
2020/12/03 12:58:23;;;;;;;44.10;25.30;;;1.10;68.30;;;;;;5081152;28;20450;-81
2020/12/03 13:00:50;;;;;;;43.00;24.90;;;1.20;68.20;;;;;;5077709;28;20466;-79
2020/12/03 13:03:16;;;;;;;44.60;26.03;;;1.20;68.10;;;;;;5079057;28;20514;-80